Sandy, OR

1:41 AM PST on February 06, 2016 (GMT -0800)
Davis St - Gary St. | | Change Station
CLOSE
Current Station
Personal Weather Station
Location: Sandy, OR
Elevation: 1037 ft
Nearby Weather Stations

Elev 1037 ft 45.39 °N, 122.25 °W | Updated 1 minute ago

Mostly Cloudy
Mostly Cloudy
42.1 °F
Feels Like 42 °F
N
2.2
Wind Variable Wind from South

Today
High -- | Low -- °F
--% Chance of Precip.
Yesterday
High -- | Low -- °F
Precip. -- in
Pressure 30.39 in
Visibility 10.0 miles
Clouds Scattered Clouds 4600 ft
Mostly Cloudy 5500 ft
Overcast 7000 ft
Windchill 42 °F
Dew Point 42 °F
Humidity 99%
Rainfall 0.02 in
Snow Depth Not available.
7:23 AM 5:22 PM
Waning Crescent, 6% visible
METAR KTTD 060853Z AUTO 00000KT 10SM SCT046 BKN055 OVC070 09/06 A3039 RMK AO2 SLP289 T00890056 51028
Pressure 30.39 in
Visibility 10.0 miles
Clouds Scattered Clouds 4600 ft
Mostly Cloudy 5500 ft
Overcast 7000 ft
Windchill 42 °F
Dew Point 42 °F
Humidity 99%
Rainfall 0.02 in
Snow Depth Not available.
7:23 AM 5:22 PM
Waning Crescent, 6% visible
METAR KTTD 060853Z AUTO 00000KT 10SM SCT046 BKN055 OVC070 09/06 A3039 RMK AO2 SLP289 T00890056 51028

10-Day Weather Forecast

Almanac

Astronomy

Feb. 06, 2016 Rise Set
Actual Time
Civil Twilight
Nautical Twilight
Astronomical Twilight
Moon
Length of Visible Light
Length of Day
Tomorrow will be .
, % of the Moon is Illuminated

Today's Extremes

State Highs State Lows

Community

WunderPhotos

Upload Photos

1,890,933 photos uploaded!

WunderBlog® & News

Nearby

Air Quality

  Air Quality AQ Index Pollutant
Not available.

Snow Depth

Station Depth Elevation

Earthquake Activity

City Distance Mag. Time & Date
Minimum magnitude displayed is 2.5.

Coastal Water Temperatures

Place Temperature

Stations

Nearby Weather Stations

Station Location Temp. Windchill Dew Point Humidity Wind Precip. Elev Updated Type
                   

Watches & Warnings

There are currently no watches in effect.